createdAt,value
2023-04-15T00:02:07.862Z,1.73
2023-04-15T00:04:34.487Z,1.45
2023-04-15T00:07:01.255Z,2.15
2023-04-15T00:09:27.762Z,1.20
2023-04-15T00:11:57.409Z,1.38
2023-04-15T00:14:29.125Z,1.17
2023-04-15T00:16:56.734Z,1.20
2023-04-15T00:19:23.835Z,1.73
2023-04-15T00:21:50.353Z,1.67
2023-04-15T00:26:48.767Z,1.73
2023-04-15T00:29:15.463Z,1.70
2023-04-15T00:31:44.631Z,1.10
2023-04-15T00:34:11.175Z,1.80
2023-04-15T00:36:37.856Z,1.35
2023-04-15T00:39:04.444Z,1.45
2023-04-15T00:41:30.951Z,1.35
2023-04-15T00:43:57.468Z,2.38
2023-04-15T00:46:27.688Z,1.15
2023-04-15T00:48:55.242Z,1.20
2023-04-15T00:51:21.744Z,1.45
2023-04-15T00:53:48.313Z,1.25
2023-04-15T00:56:14.914Z,1.75
2023-04-15T00:58:41.953Z,1.20
2023-04-15T01:01:11.763Z,1.00
2023-04-15T01:03:38.811Z,1.65
2023-04-15T01:06:05.571Z,1.10
2023-04-15T01:08:34.448Z,1.27
2023-04-15T01:11:03.814Z,1.13
2023-04-15T01:13:30.565Z,1.60
2023-04-15T01:15:57.359Z,1.00
2023-04-15T01:18:24.070Z,1.15
2023-04-15T01:20:50.583Z,1.30
2023-04-15T01:23:17.169Z,1.00
2023-04-15T01:25:44.289Z,1.08
2023-04-15T01:28:10.828Z,1.17
2023-04-15T01:30:38.933Z,1.30
2023-04-15T01:33:05.467Z,1.20
2023-04-15T01:35:31.986Z,0.77
2023-04-15T01:38:02.527Z,0.90
2023-04-15T01:43:04.685Z,1.25
2023-04-15T01:45:31.170Z,1.10
2023-04-15T01:47:58.899Z,0.88
2023-04-15T01:52:56.877Z,1.08
2023-04-15T01:55:24.754Z,0.77
2023-04-15T01:57:51.236Z,0.90
2023-04-15T02:00:17.786Z,0.93
2023-04-15T02:02:44.499Z,1.17
2023-04-15T02:05:11.122Z,0.77
2023-04-15T02:07:37.733Z,1.27
2023-04-15T02:10:04.420Z,0.88
2023-04-15T02:12:34.352Z,0.98
2023-04-15T02:15:01.948Z,1.02
2023-04-15T02:17:34.590Z,0.90
2023-04-15T02:20:03.371Z,0.60
2023-04-15T02:22:29.868Z,0.90
2023-04-15T02:24:56.432Z,0.70
2023-04-15T02:27:23.017Z,0.50
2023-04-15T02:32:22.779Z,0.80
2023-04-15T02:37:20.955Z,0.68
2023-04-15T02:39:47.501Z,0.63
2023-04-15T02:42:22.013Z,0.50
2023-04-15T02:47:23.810Z,0.90
2023-04-15T02:49:50.355Z,0.65
2023-04-15T02:52:26.382Z,0.32
2023-04-15T02:54:52.932Z,0.40
2023-04-15T02:57:24.986Z,0.30
2023-04-15T02:59:53.156Z,0.68
2023-04-15T03:02:22.909Z,0.22
2023-04-15T03:04:49.687Z,0.35
2023-04-15T03:07:17.701Z,0.68
2023-04-15T03:09:44.404Z,0.25
2023-04-15T03:12:17.083Z,0.10
2023-04-15T03:14:44.119Z,0.30
2023-04-15T03:17:11.739Z,0.50
2023-04-15T03:19:38.322Z,0.35
2023-04-15T03:22:07.800Z,0.40
2023-04-15T03:24:36.025Z,0.32
2023-04-15T03:27:14.820Z,0.30
2023-04-15T03:29:48.872Z,0.20
2023-04-15T03:32:19.371Z,0.30
2023-04-15T03:34:49.031Z,0.30
2023-04-15T03:37:23.658Z,0.30
2023-04-15T03:40:05.482Z,0.32
2023-04-15T03:42:40.130Z,0.10
2023-04-15T03:45:16.403Z,0.20
2023-04-15T03:47:53.177Z,0.20
2023-04-15T03:50:30.610Z,0.22
2023-04-15T03:53:00.105Z,0.30
2023-04-15T03:55:32.238Z,0.25
2023-04-15T03:58:02.798Z,0.20
2023-04-15T04:00:30.182Z,0.20
2023-04-15T04:02:57.970Z,0.30
2023-04-15T04:05:26.840Z,0.17
2023-04-15T04:07:59.475Z,0.20
2023-04-15T04:10:43.992Z,0.22
2023-04-15T04:13:26.319Z,0.20
2023-04-15T04:15:56.123Z,0.25
2023-04-15T04:18:40.434Z,0.30
2023-04-15T04:21:12.782Z,0.22
2023-04-15T04:23:39.669Z,0.20
2023-04-15T04:26:19.537Z,0.38
2023-04-15T04:28:51.663Z,0.20
2023-04-15T04:31:29.267Z,0.32
2023-04-15T04:33:59.161Z,0.17
2023-04-15T04:36:45.926Z,0.10
2023-04-15T04:39:45.174Z,0.30
2023-04-15T04:44:53.292Z,0.20
2023-04-15T04:47:20.991Z,0.20
2023-04-15T04:49:47.673Z,0.17
2023-04-15T04:54:46.107Z,0.30
2023-04-15T04:59:44.927Z,0.50
2023-04-15T05:02:11.578Z,0.40
2023-04-15T05:04:38.221Z,0.40
2023-04-15T05:09:44.926Z,0.30
2023-04-15T05:12:11.534Z,0.20
2023-04-15T05:14:38.154Z,0.50
2023-04-15T05:17:04.926Z,0.38
2023-04-15T05:19:31.535Z,0.40
2023-04-15T05:21:58.099Z,0.30
2023-04-15T05:24:27.554Z,0.35
2023-04-15T05:26:56.217Z,0.22
2023-04-15T05:29:24.902Z,0.30
2023-04-15T05:34:24.982Z,0.40
2023-04-15T05:36:51.572Z,0.40
2023-04-15T05:39:21.929Z,0.52
2023-04-15T05:41:53.850Z,0.30
2023-04-15T05:44:20.895Z,0.60
2023-04-15T05:46:47.486Z,0.30
2023-04-15T05:49:14.121Z,0.60
2023-04-15T05:51:40.709Z,0.47
2023-04-15T05:54:07.486Z,0.40
2023-04-15T05:56:34.180Z,0.57
2023-04-15T05:59:00.916Z,0.70
2023-04-15T06:01:27.734Z,0.40
2023-04-15T06:03:54.575Z,0.40
2023-04-15T06:06:21.260Z,0.30
2023-04-15T06:08:49.034Z,0.60
2023-04-15T06:11:15.654Z,0.45
2023-04-15T06:13:47.568Z,0.40
2023-04-15T06:16:14.908Z,0.47
2023-04-15T06:18:43.877Z,0.50
2023-04-15T06:21:13.480Z,0.40
2023-04-15T06:23:40.065Z,0.30
2023-04-15T06:26:06.729Z,0.40
2023-04-15T06:28:33.280Z,0.30
2023-04-15T06:30:59.908Z,0.60
2023-04-15T06:33:26.517Z,0.63
2023-04-15T06:35:53.090Z,0.47
2023-04-15T06:38:19.690Z,0.35
2023-04-15T06:40:48.078Z,0.40
2023-04-15T06:43:14.621Z,0.40
2023-04-15T06:45:43.026Z,0.38
2023-04-15T06:48:09.636Z,0.50
2023-04-15T06:50:36.206Z,0.38
2023-04-15T06:53:02.751Z,0.30
2023-04-15T06:55:32.142Z,0.40
2023-04-15T06:58:02.067Z,0.40
2023-04-15T07:00:30.192Z,0.30
2023-04-15T07:02:56.960Z,0.40
2023-04-15T07:05:27.031Z,0.40
2023-04-15T07:08:02.780Z,0.35
2023-04-15T07:10:29.450Z,0.40
2023-04-15T07:12:56.647Z,0.32
2023-04-15T07:15:26.206Z,0.50
2023-04-15T07:20:26.766Z,0.40
2023-04-15T07:22:53.388Z,0.47
2023-04-15T07:25:20.031Z,0.30
2023-04-15T07:27:46.666Z,0.50
2023-04-15T07:30:13.660Z,0.43
2023-04-15T07:32:40.468Z,0.40
2023-04-15T07:35:11.635Z,0.40
2023-04-15T07:37:38.249Z,0.40
2023-04-15T07:40:05.037Z,0.45
2023-04-15T07:45:10.038Z,0.50
2023-04-15T07:47:37.210Z,0.50
2023-04-15T07:52:35.190Z,0.40
2023-04-15T07:55:03.459Z,0.40
2023-04-15T07:57:33.644Z,0.40
2023-04-15T08:00:01.237Z,0.50
2023-04-15T08:02:27.992Z,0.32
2023-04-15T08:04:54.689Z,0.30
2023-04-15T08:07:22.508Z,0.50
2023-04-15T08:09:49.215Z,0.45
2023-04-15T08:14:51.157Z,0.52
2023-04-15T08:17:24.141Z,0.50
2023-04-15T08:22:19.690Z,0.50
2023-04-15T08:24:49.147Z,0.50
2023-04-15T08:27:15.951Z,0.50
2023-04-15T08:29:46.128Z,0.50
2023-04-15T08:32:12.802Z,0.40
2023-04-15T08:34:42.943Z,0.40
2023-04-15T08:37:10.918Z,0.30
2023-04-15T08:39:38.828Z,0.35
2023-04-15T08:42:08.113Z,0.35
2023-04-15T08:44:38.129Z,0.38
2023-04-15T08:47:15.824Z,0.45
2023-04-15T08:49:52.215Z,0.50
2023-04-15T08:52:26.807Z,0.43
2023-04-15T08:55:03.413Z,0.40
2023-04-15T08:57:44.776Z,0.45
2023-04-15T09:00:16.623Z,0.60
2023-04-15T09:02:45.287Z,0.63
2023-04-15T09:05:12.154Z,0.40
2023-04-15T09:07:47.553Z,0.47
2023-04-15T09:10:19.851Z,0.47
2023-04-15T09:12:50.994Z,0.57
2023-04-15T09:15:28.060Z,0.65
2023-04-15T09:17:56.314Z,0.80
2023-04-15T09:20:28.746Z,1.10
2023-04-15T09:23:07.783Z,0.93
2023-04-15T09:25:45.502Z,0.60
2023-04-15T09:28:22.064Z,1.10
2023-04-15T09:30:52.376Z,0.90
2023-04-15T09:33:31.216Z,0.90
2023-04-15T09:36:04.324Z,0.90
2023-04-15T09:38:31.192Z,1.05
2023-04-15T09:40:58.319Z,0.95
2023-04-15T09:43:38.150Z,0.73
2023-04-15T09:46:05.254Z,0.80
2023-04-15T09:48:35.234Z,1.00
2023-04-15T09:51:02.164Z,0.70
2023-04-15T09:53:31.160Z,0.90
2023-04-15T09:55:59.395Z,0.80
2023-04-15T09:58:35.905Z,0.93
2023-04-15T10:01:05.050Z,1.33
2023-04-15T10:03:34.683Z,0.80
2023-04-15T10:06:01.769Z,1.00
2023-04-15T10:08:35.159Z,0.73
2023-04-15T10:11:18.592Z,1.00
2023-04-15T10:13:51.750Z,1.20
2023-04-15T10:16:21.382Z,0.98
2023-04-15T10:19:06.446Z,0.98
2023-04-15T10:21:40.053Z,1.20
2023-04-15T10:24:11.984Z,1.33
2023-04-15T10:26:39.196Z,1.08
2023-04-15T10:29:06.614Z,1.40
2023-04-15T10:31:33.622Z,1.10
2023-04-15T10:34:00.979Z,1.60
2023-04-15T10:36:40.921Z,2.15
2023-04-15T10:39:34.705Z,1.30
2023-04-15T10:42:09.004Z,1.60
2023-04-15T10:44:39.536Z,1.33
2023-04-15T10:47:27.148Z,1.42
2023-04-15T10:50:08.140Z,1.70
2023-04-15T10:52:45.002Z,1.35
2023-04-15T10:55:13.857Z,1.70
2023-04-15T10:57:42.727Z,1.70
2023-04-15T11:00:21.820Z,1.52
2023-04-15T11:02:57.048Z,1.40
2023-04-15T11:06:01.538Z,1.50
2023-04-15T11:08:48.257Z,1.20
2023-04-15T11:11:14.919Z,1.50
2023-04-15T11:13:48.543Z,1.65
2023-04-15T11:16:16.524Z,1.45
2023-04-15T11:18:43.132Z,1.30
2023-04-15T11:21:09.750Z,1.38
2023-04-15T11:23:39.452Z,1.40
2023-04-15T11:26:07.223Z,1.40
2023-04-15T11:28:33.955Z,1.38
2023-04-15T11:31:06.532Z,1.10
2023-04-15T11:33:33.173Z,1.40
2023-04-15T11:36:01.978Z,1.30
2023-04-15T11:38:28.631Z,1.30
2023-04-15T11:41:01.381Z,0.95
2023-04-15T11:43:28.113Z,1.40
2023-04-15T11:45:56.169Z,1.20
2023-04-15T11:48:24.101Z,1.17
2023-04-15T11:50:59.372Z,1.08
2023-04-15T11:53:39.964Z,1.02
2023-04-15T11:56:07.307Z,1.20
2023-04-15T11:58:37.345Z,1.15
2023-04-15T12:01:04.283Z,1.27
2023-04-15T12:03:32.524Z,1.20
2023-04-15T12:06:22.350Z,1.27
2023-04-15T12:08:52.334Z,1.15
2023-04-15T12:11:23.078Z,1.10
2023-04-15T12:13:57.507Z,1.23
2023-04-15T12:16:37.008Z,1.10
2023-04-15T12:19:19.628Z,1.10
2023-04-15T12:21:48.324Z,1.40
2023-04-15T12:24:15.042Z,1.45
2023-04-15T12:26:52.152Z,0.90
2023-04-15T12:29:19.062Z,1.05
2023-04-15T12:31:49.114Z,1.10
2023-04-15T12:34:16.326Z,1.00
2023-04-15T12:36:42.955Z,1.38
2023-04-15T12:39:09.587Z,1.15
2023-04-15T12:41:36.323Z,1.40
2023-04-15T12:44:03.628Z,1.50
2023-04-15T12:46:30.412Z,1.25
2023-04-15T12:48:57.166Z,1.30
2023-04-15T12:51:23.901Z,1.35
2023-04-15T12:53:50.989Z,1.30
2023-04-15T12:56:17.605Z,1.67
2023-04-15T12:58:44.236Z,1.25
2023-04-15T13:01:11.167Z,1.25
2023-04-15T13:03:38.071Z,1.33
2023-04-15T13:06:06.378Z,1.60
2023-04-15T13:08:33.178Z,1.52
2023-04-15T13:11:00.364Z,1.30
2023-04-15T13:13:27.221Z,1.50
2023-04-15T13:15:55.020Z,1.27
2023-04-15T13:18:23.378Z,1.30
2023-04-15T13:20:50.195Z,1.30
2023-04-15T13:23:16.875Z,1.05
2023-04-15T13:25:43.584Z,1.13
2023-04-15T13:28:13.189Z,1.10
2023-04-15T13:30:40.382Z,1.20
2023-04-15T13:33:07.043Z,1.40
2023-04-15T13:35:33.636Z,1.10
2023-04-15T13:38:00.232Z,1.20
2023-04-15T13:40:26.891Z,1.23
2023-04-15T13:42:53.433Z,1.08
2023-04-15T13:45:20.035Z,1.38
2023-04-15T13:47:46.641Z,1.20
2023-04-15T13:50:16.374Z,1.30
2023-04-15T13:52:47.934Z,0.88
2023-04-15T13:55:18.829Z,1.00
2023-04-15T13:57:47.268Z,0.90
2023-04-15T14:00:14.447Z,0.90
2023-04-15T14:02:41.285Z,1.48
2023-04-15T14:05:08.441Z,1.10
2023-04-15T14:07:38.099Z,0.63
2023-04-15T14:10:04.908Z,0.95
2023-04-15T14:12:35.842Z,0.80
2023-04-15T14:15:04.577Z,0.90
2023-04-15T14:17:33.844Z,1.15
2023-04-15T14:20:04.019Z,1.00
2023-04-15T14:22:31.025Z,1.08
2023-04-15T14:25:03.245Z,1.20
2023-04-15T14:27:37.993Z,1.10
2023-04-15T14:30:09.472Z,0.80
2023-04-15T14:32:36.538Z,0.90
2023-04-15T14:35:03.249Z,1.08
2023-04-15T14:37:30.100Z,1.30
2023-04-15T14:39:56.693Z,1.05
2023-04-15T14:42:23.293Z,0.80
2023-04-15T14:44:50.450Z,1.10
2023-04-15T14:47:19.747Z,0.80
2023-04-15T14:49:46.420Z,0.90
2023-04-15T14:52:13.065Z,1.20
2023-04-15T14:54:39.704Z,0.80
2023-04-15T14:57:06.321Z,0.88
2023-04-15T14:59:32.983Z,1.25
2023-04-15T15:01:59.994Z,0.75
2023-04-15T15:04:26.806Z,1.33
2023-04-15T15:06:53.530Z,1.23
2023-04-15T15:09:20.145Z,2.10
2023-04-15T15:11:52.069Z,0.98
2023-04-15T15:14:21.480Z,1.10
2023-04-15T15:19:23.643Z,1.40
2023-04-15T15:21:52.088Z,0.95
2023-04-15T15:24:23.368Z,1.33
2023-04-15T15:26:49.987Z,0.98
2023-04-15T15:29:25.225Z,1.17
2023-04-15T15:31:52.619Z,1.42
2023-04-15T15:34:19.334Z,1.15
2023-04-15T15:39:23.235Z,1.08
2023-04-15T15:41:51.547Z,0.95
2023-04-15T15:44:18.178Z,0.88
2023-04-15T15:46:46.596Z,1.23
2023-04-15T15:49:19.501Z,1.00
2023-04-15T15:51:46.077Z,1.52
2023-04-15T15:54:13.258Z,1.17
2023-04-15T15:56:41.183Z,1.10
2023-04-15T15:59:11.492Z,1.17
2023-04-15T16:01:38.110Z,1.02
2023-04-15T16:04:04.858Z,1.20
2023-04-15T16:06:33.246Z,0.88
2023-04-15T16:09:07.328Z,0.90
2023-04-15T16:11:37.024Z,1.20
2023-04-15T16:14:04.811Z,1.30
2023-04-15T16:16:31.475Z,1.20
2023-04-15T16:18:58.176Z,0.98
2023-04-15T16:21:25.578Z,1.35
2023-04-15T16:23:52.168Z,1.20
2023-04-15T16:26:20.603Z,1.13
2023-04-15T16:28:47.198Z,1.10
2023-04-15T16:31:13.965Z,1.17
2023-04-15T16:33:40.542Z,0.93
2023-04-15T16:36:07.335Z,0.80
2023-04-15T16:38:33.889Z,1.17
2023-04-15T16:41:01.659Z,1.75
2023-04-15T16:43:28.610Z,1.17
2023-04-15T16:45:55.237Z,1.35
2023-04-15T16:48:22.134Z,1.10
2023-04-15T16:51:01.780Z,1.45
2023-04-15T16:53:29.262Z,1.45
2023-04-15T16:55:56.072Z,1.25
2023-04-15T16:58:28.195Z,1.10
2023-04-15T17:00:54.968Z,1.40
2023-04-15T17:03:36.042Z,1.33
2023-04-15T17:06:04.381Z,1.00
2023-04-15T17:08:37.090Z,1.20
2023-04-15T17:11:03.664Z,1.20
2023-04-15T17:13:30.533Z,1.20
2023-04-15T17:15:57.136Z,1.00
2023-04-15T17:18:24.559Z,1.30
2023-04-15T17:21:01.392Z,1.42
2023-04-15T17:23:29.170Z,1.17
2023-04-15T17:25:56.583Z,1.40
2023-04-15T17:28:23.191Z,1.60
2023-04-15T17:30:54.589Z,1.58
2023-04-15T17:33:56.122Z,1.17
2023-04-15T17:36:16.656Z,1.20
2023-04-15T17:38:43.481Z,1.23
2023-04-15T17:41:14.346Z,1.50
2023-04-15T17:43:41.123Z,1.48
2023-04-15T17:46:07.826Z,1.55
2023-04-15T17:48:34.691Z,1.02
2023-04-15T17:51:04.290Z,1.30
2023-04-15T17:53:30.885Z,1.13
2023-04-15T17:55:58.001Z,1.30
2023-04-15T17:58:29.714Z,1.10
2023-04-15T18:03:46.876Z,1.00
2023-04-15T18:06:13.541Z,1.13
2023-04-15T18:08:40.201Z,1.17
2023-04-15T18:13:38.714Z,1.10
2023-04-15T18:16:14.463Z,1.20
2023-04-15T18:18:41.970Z,1.20
2023-04-15T18:21:08.605Z,0.90
2023-04-15T18:23:35.255Z,1.38
2023-04-15T18:26:01.991Z,1.02
2023-04-15T18:28:33.679Z,0.90
2023-04-15T18:33:33.647Z,1.02
2023-04-15T18:36:00.238Z,1.08
2023-04-15T18:38:28.688Z,1.23
2023-04-15T18:40:55.351Z,1.40
2023-04-15T18:43:21.934Z,1.33
2023-04-15T18:45:48.584Z,1.38
2023-04-15T18:48:15.158Z,1.65
2023-04-15T18:50:42.762Z,1.35
2023-04-15T18:53:09.450Z,1.40
2023-04-15T18:55:36.080Z,1.20
2023-04-15T18:58:08.934Z,1.10
2023-04-15T19:00:35.819Z,1.38
2023-04-15T19:03:08.838Z,1.40
2023-04-15T19:05:35.698Z,1.30
2023-04-15T19:08:02.639Z,1.23
2023-04-15T19:10:32.717Z,1.20
2023-04-15T19:12:59.283Z,0.80
2023-04-15T19:15:25.891Z,1.10
2023-04-15T19:17:52.534Z,1.20
2023-04-15T19:20:19.165Z,1.38
2023-04-15T19:22:46.286Z,1.35
2023-04-15T19:25:12.850Z,0.93
2023-04-15T19:27:39.434Z,1.15
2023-04-15T19:30:09.622Z,1.58
2023-04-15T19:35:11.368Z,0.85
2023-04-15T19:37:39.675Z,1.05
2023-04-15T19:40:06.718Z,1.42
2023-04-15T19:42:36.273Z,1.10
2023-04-15T19:47:36.754Z,1.15
2023-04-15T19:50:09.533Z,1.00
2023-04-15T19:52:36.150Z,1.50
2023-04-15T19:55:02.928Z,1.00
2023-04-15T19:57:36.309Z,1.20
2023-04-15T20:00:04.703Z,1.50
2023-04-15T20:02:31.531Z,1.42
2023-04-15T20:04:59.978Z,1.20
2023-04-15T20:07:26.689Z,1.35
2023-04-15T20:09:53.266Z,1.70
2023-04-15T20:12:49.836Z,1.27
2023-04-15T20:15:07.195Z,1.63
2023-04-15T20:17:39.561Z,1.35
2023-04-15T20:20:07.770Z,1.50
2023-04-15T20:22:34.529Z,1.50
2023-04-15T20:25:01.725Z,1.30
2023-04-15T20:27:30.497Z,1.60
2023-04-15T20:29:57.109Z,1.95
2023-04-15T20:32:23.752Z,1.90
2023-04-15T20:34:50.552Z,1.45
2023-04-15T20:37:17.822Z,1.65
2023-04-15T20:39:44.506Z,1.38
2023-04-15T20:42:17.623Z,1.60
2023-04-15T20:44:44.274Z,1.73
2023-04-15T20:47:11.032Z,2.15
2023-04-15T20:49:38.747Z,1.42
2023-04-15T20:52:06.767Z,1.77
2023-04-15T20:54:37.764Z,1.45
2023-04-15T20:57:04.363Z,1.73
2023-04-15T20:59:30.942Z,2.20
2023-04-15T21:01:58.338Z,1.05
2023-04-15T21:04:25.000Z,1.50
2023-04-15T21:06:52.353Z,1.83
2023-04-15T21:09:23.079Z,2.08
2023-04-15T21:12:01.096Z,1.73
2023-04-15T21:14:30.561Z,1.73
2023-04-15T21:16:57.549Z,1.75
2023-04-15T21:19:29.805Z,2.25
2023-04-15T21:21:56.805Z,2.45
2023-04-15T21:24:23.392Z,2.15
2023-04-15T21:26:49.966Z,2.08
2023-04-15T21:29:16.590Z,2.20
2023-04-15T21:31:43.207Z,2.22
2023-04-15T21:34:13.819Z,2.05
2023-04-15T21:36:40.679Z,1.65
2023-04-15T21:39:10.954Z,2.20
2023-04-15T21:41:38.426Z,1.70
2023-04-15T21:44:12.638Z,2.00
2023-04-15T21:46:41.228Z,2.05
2023-04-15T21:49:08.984Z,2.20
2023-04-15T21:51:37.532Z,1.95
2023-04-15T21:54:05.012Z,1.85
2023-04-15T21:56:32.371Z,1.70
2023-04-15T21:59:03.035Z,2.03
2023-04-15T22:01:30.538Z,1.75
2023-04-15T22:03:57.393Z,1.48
2023-04-15T22:06:25.784Z,1.83
2023-04-15T22:09:11.335Z,1.45
2023-04-15T22:11:40.867Z,1.83
2023-04-15T22:14:07.461Z,1.50
2023-04-15T22:16:43.953Z,1.70
2023-04-15T22:19:10.778Z,1.92
2023-04-15T22:21:40.352Z,1.42
2023-04-15T22:24:39.412Z,1.83
2023-04-15T22:26:59.072Z,1.80
2023-04-15T22:29:27.828Z,1.60
2023-04-15T22:31:57.794Z,1.88
2023-04-15T22:34:24.410Z,1.70
2023-04-15T22:36:57.424Z,2.60
2023-04-15T22:39:24.079Z,1.95
2023-04-15T22:41:50.645Z,2.17
2023-04-15T22:44:17.168Z,1.98
2023-04-15T22:46:45.803Z,1.77
2023-04-15T22:49:12.429Z,2.22
2023-04-15T22:51:39.036Z,2.17
2023-04-15T22:54:05.772Z,1.90
2023-04-15T22:56:32.547Z,1.80
2023-04-15T22:58:59.135Z,2.47
2023-04-15T23:01:25.697Z,2.50
2023-04-15T23:03:55.741Z,1.73
2023-04-15T23:06:23.803Z,2.03
2023-04-15T23:08:51.015Z,2.20
2023-04-15T23:11:17.684Z,2.40
2023-04-15T23:13:51.673Z,2.50
2023-04-15T23:16:23.125Z,2.45
2023-04-15T23:18:56.504Z,2.25
2023-04-15T23:21:25.933Z,3.15
2023-04-15T23:23:52.749Z,2.85
2023-04-15T23:26:19.307Z,2.20
2023-04-15T23:28:45.901Z,2.50
2023-04-15T23:31:13.776Z,2.92
2023-04-15T23:33:40.553Z,2.70
2023-04-15T23:36:07.215Z,3.40
2023-04-15T23:38:38.836Z,3.30
2023-04-15T23:41:05.477Z,2.28
2023-04-15T23:43:32.054Z,3.20
2023-04-15T23:46:02.995Z,3.33
2023-04-15T23:48:29.708Z,4.18
2023-04-15T23:51:00.657Z,3.20
2023-04-15T23:53:27.667Z,3.10
2023-04-15T23:56:00.009Z,3.13
2023-04-15T23:58:33.995Z,2.88
